Time;durP1;ratioP1;P1;durP2;ratioP2;P2;SDS_P1;SDS_P2;PMS_P1;PMS_P2;Temp;Humidity;BMP_temperature;BMP_pressure;BME280_temperature;BME280_humidity;BME280_pressure;Samples;Min_cycle;Max_cycle;Signal;HPM_P1;HPM_P2
2022/12/01 00:01:02;;;;;;;27.48;12.77;;;3.40;99.90;;;;;;5156547;28;20048;-61
2022/12/01 00:03:38;;;;;;;19.08;10.38;;;3.40;99.90;;;;;;5192638;28;20029;-60
2022/12/01 00:06:19;;;;;;;29.30;12.82;;;3.30;99.90;;;;;;5197979;28;20054;-60
2022/12/01 00:11:49;;;;;;;24.35;11.82;;;3.20;99.90;;;;;;5194849;28;20101;-61
2022/12/01 00:14:24;;;;;;;25.80;12.57;;;3.10;99.90;;;;;;5213158;28;20045;-60
2022/12/01 00:16:55;;;;;;;25.10;12.23;;;3.00;99.90;;;;;;5195061;28;20037;-59
2022/12/01 00:19:32;;;;;;;24.10;11.43;;;3.00;99.90;;;;;;5179881;28;20032;-60
2022/12/01 00:22:09;;;;;;;24.52;11.82;;;2.90;99.90;;;;;;5194408;28;20060;-60
2022/12/01 00:24:41;;;;;;;22.10;11.52;;;3.00;99.90;;;;;;5195860;28;20207;-60
2022/12/01 00:27:12;;;;;;;22.63;11.52;;;3.00;99.90;;;;;;5196167;28;20344;-60
2022/12/01 00:29:51;;;;;;;22.90;11.15;;;3.00;99.90;;;;;;5179420;28;20053;-60
2022/12/01 00:32:30;;;;;;;22.92;11.52;;;2.90;99.90;;;;;;5196271;28;20026;-59
2022/12/01 00:35:13;;;;;;;24.02;11.88;;;2.90;99.90;;;;;;5179662;28;20056;-60
2022/12/01 00:37:45;;;;;;;22.42;11.02;;;2.80;99.90;;;;;;5179085;28;20226;-59
2022/12/01 00:40:19;;;;;;;21.77;10.82;;;2.70;99.90;;;;;;5195708;28;20053;-60
2022/12/01 00:43:12;;;;;;;22.38;11.38;;;2.70;99.90;;;;;;5179787;28;20274;-59
2022/12/01 00:45:50;;;;;;;21.17;11.73;;;2.60;99.90;;;;;;5187645;28;20053;-62
2022/12/01 00:48:25;;;;;;;21.95;11.88;;;2.60;99.90;;;;;;5168834;28;20053;-59
2022/12/01 00:51:00;;;;;;;26.73;11.55;;;2.50;99.90;;;;;;5222555;28;20049;-59
2022/12/01 00:53:38;;;;;;;23.77;12.18;;;2.50;99.90;;;;;;5200607;28;20041;-59
2022/12/01 00:56:09;;;;;;;22.58;12.45;;;2.40;99.90;;;;;;5216396;28;20048;-59
2022/12/01 00:58:58;;;;;;;21.08;11.55;;;2.30;99.90;;;;;;5216195;28;20048;-60
2022/12/01 01:01:34;;;;;;;24.20;11.63;;;2.30;99.90;;;;;;5232000;22;20058;-60
2022/12/01 01:04:14;;;;;;;25.25;12.32;;;2.40;99.90;;;;;;5162977;28;20042;-59
2022/12/01 01:06:46;;;;;;;25.80;12.23;;;2.30;99.90;;;;;;5154943;28;20054;-60
2022/12/01 01:09:19;;;;;;;25.85;13.73;;;2.30;99.90;;;;;;5158757;28;20053;-61
2022/12/01 01:11:57;;;;;;;25.83;14.05;;;2.40;99.90;;;;;;5158369;28;20041;-60
2022/12/01 01:14:36;;;;;;;22.63;11.95;;;2.40;99.90;;;;;;5170246;28;20357;-60
2022/12/01 01:17:13;;;;;;;29.10;12.18;;;2.40;99.90;;;;;;5138864;28;20049;-60
2022/12/01 01:19:55;;;;;;;30.25;13.98;;;2.40;99.90;;;;;;5147508;28;20050;-60
2022/12/01 01:22:29;;;;;;;25.15;12.52;;;2.50;99.90;;;;;;5189086;28;20190;-59
2022/12/01 01:25:04;;;;;;;;;;;2.50;99.90;;;;;;5157110;28;20060;-60
2022/12/01 01:27:43;;;;;;;24.83;13.18;;;2.60;99.90;;;;;;5139808;28;19914;-61
2022/12/01 01:30:18;;;;;;;25.50;12.25;;;2.60;99.90;;;;;;5159250;28;20040;-60
2022/12/01 01:32:57;;;;;;;29.92;13.23;;;2.70;99.90;;;;;;5154263;28;20254;-60
2022/12/01 01:35:37;;;;;;;32.47;15.43;;;2.70;99.90;;;;;;5185335;28;20048;-60
2022/12/01 01:38:12;;;;;;;34.92;14.75;;;2.70;99.90;;;;;;5154355;28;20034;-59
2022/12/01 01:40:50;;;;;;;29.10;14.32;;;2.70;99.90;;;;;;5122690;28;20047;-60
2022/12/01 01:44:03;;;;;;;28.90;14.93;;;2.80;99.90;;;;;;5137792;28;20047;-60
2022/12/01 01:46:40;;;;;;;31.70;15.52;;;2.80;99.90;;;;;;5157760;28;20050;-60
2022/12/01 01:49:17;;;;;;;27.05;15.23;;;2.80;99.90;;;;;;5158414;28;20026;-62
2022/12/01 01:51:54;;;;;;;37.70;16.27;;;2.80;99.90;;;;;;5158445;28;20266;-61
2022/12/01 01:54:41;;;;;;;38.80;16.15;;;2.80;99.90;;;;;;5160697;28;20246;-59
2022/12/01 01:57:31;;;;;;;33.78;15.38;;;2.80;99.90;;;;;;5158750;28;20038;-59
2022/12/01 02:00:16;;;;;;;34.72;14.52;;;2.70;99.90;;;;;;5176049;28;20192;-60
2022/12/01 02:02:59;;;;;;;38.95;16.02;;;2.70;99.90;;;;;;5172498;28;20046;-59
2022/12/01 02:05:36;;;;;;;37.42;16.88;;;2.70;99.90;;;;;;5178469;28;20072;-59
2022/12/01 02:08:13;;;;;;;40.85;17.15;;;2.70;99.90;;;;;;5159989;28;20038;-59
2022/12/01 02:11:10;;;;;;;36.53;17.35;;;2.70;99.90;;;;;;5183504;28;20046;-59
2022/12/01 02:14:18;;;;;;;35.80;16.55;;;2.70;99.90;;;;;;5170355;28;20215;-60
2022/12/01 02:17:38;;;;;;;38.63;16.80;;;2.70;99.90;;;;;;5174341;28;20038;-60
2022/12/01 02:20:28;;;;;;;39.35;17.40;;;2.60;99.90;;;;;;5143383;28;20042;-60
2022/12/01 02:23:33;;;;;;;37.60;15.52;;;2.60;99.90;;;;;;5185013;28;20055;-59
2022/12/01 02:26:43;;;;;;;44.60;17.70;;;2.50;99.90;;;;;;5183282;28;20044;-59
2022/12/01 02:30:04;;;;;;;45.83;19.52;;;2.50;99.90;;;;;;5172680;28;20042;-60
2022/12/01 02:32:57;;;;;;;42.15;18.70;;;2.40;99.90;;;;;;5188905;28;20050;-60
2022/12/01 02:35:34;;;;;;;40.00;17.52;;;2.30;99.90;;;;;;5172985;28;20044;-59
2022/12/01 02:38:33;;;;;;;42.13;18.88;;;2.30;99.90;;;;;;5160247;28;20311;-60
2022/12/01 02:41:26;;;;;;;39.08;17.23;;;2.30;99.90;;;;;;5178339;28;20041;-60
2022/12/01 02:44:09;;;;;;;47.92;18.10;;;2.20;99.90;;;;;;5146122;28;20048;-59
2022/12/01 02:47:09;;;;;;;35.08;16.95;;;2.20;99.90;;;;;;5137369;28;20227;-60
2022/12/01 02:49:49;;;;;;;44.35;17.98;;;2.10;99.90;;;;;;5156936;28;20046;-61
2022/12/01 02:52:28;;;;;;;39.88;18.08;;;2.10;99.90;;;;;;5152709;28;20029;-61
2022/12/01 02:55:05;;;;;;;41.80;17.70;;;2.00;99.90;;;;;;5155073;28;20213;-60
2022/12/01 02:57:42;;;;;;;43.97;18.27;;;2.00;99.90;;;;;;5151714;28;20076;-59
2022/12/01 03:00:16;;;;;;;45.40;18.13;;;1.90;99.90;;;;;;5136706;28;20073;-59
2022/12/01 03:02:59;;;;;;;42.72;17.00;;;1.90;99.90;;;;;;5164797;28;20046;-60
2022/12/01 03:05:57;;;;;;;39.22;17.48;;;1.90;99.90;;;;;;5156050;28;20049;-60
2022/12/01 03:09:08;;;;;;;48.97;19.75;;;1.90;99.90;;;;;;5162016;28;20061;-60
2022/12/01 03:11:56;;;;;;;46.40;18.20;;;1.80;99.90;;;;;;5139992;28;20058;-60
2022/12/01 03:14:55;;;;;;;50.03;19.63;;;1.80;99.90;;;;;;5173168;28;20050;-59
2022/12/01 03:17:56;;;;;;;53.70;18.17;;;1.80;99.90;;;;;;5172253;28;20042;-59
2022/12/01 03:20:35;;;;;;;57.22;20.92;;;1.80;99.90;;;;;;5140389;28;20041;-59
2022/12/01 03:23:20;;;;;;;42.15;17.80;;;1.80;99.90;;;;;;5155977;28;20056;-61
2022/12/01 03:26:05;;;;;;;41.38;19.40;;;1.70;99.90;;;;;;5188897;28;20042;-60
2022/12/01 03:29:06;;;;;;;48.65;17.90;;;1.70;99.90;;;;;;5173267;28;20048;-60
2022/12/01 03:31:51;;;;;;;47.53;18.45;;;1.70;99.90;;;;;;5124977;28;20050;-59
2022/12/01 03:34:44;;;;;;;45.92;18.77;;;1.60;99.90;;;;;;5185119;28;20033;-59
2022/12/01 03:37:32;;;;;;;46.25;18.63;;;1.60;99.90;;;;;;5172376;28;20345;-60
2022/12/01 03:40:12;;;;;;;53.30;20.40;;;1.60;99.90;;;;;;5172845;28;20038;-60
2022/12/01 03:42:52;;;;;;;46.85;19.13;;;1.60;99.90;;;;;;5170545;28;20628;-59
2022/12/01 03:45:31;;;;;;;40.15;17.15;;;1.70;99.90;;;;;;5168322;28;20045;-59
2022/12/01 03:48:10;;;;;;;48.60;21.02;;;1.70;99.90;;;;;;5152871;28;20037;-60
2022/12/01 03:50:55;;;;;;;45.47;18.73;;;1.70;99.90;;;;;;5135702;28;20049;-59
2022/12/01 03:53:48;;;;;;;46.35;19.33;;;1.70;99.90;;;;;;5178875;28;20319;-59
2022/12/01 03:56:29;;;;;;;45.58;18.83;;;1.80;99.90;;;;;;5176822;28;20056;-59
2022/12/01 03:59:06;;;;;;;56.03;20.10;;;1.80;99.90;;;;;;5192020;28;20342;-61
2022/12/01 04:01:41;;;;;;;41.90;19.42;;;1.80;99.90;;;;;;5185697;28;20042;-60
2022/12/01 04:04:16;;;;;;;45.38;18.02;;;1.80;99.90;;;;;;5159997;28;20046;-59
2022/12/01 04:06:50;;;;;;;50.70;19.80;;;1.80;99.90;;;;;;5188122;28;20038;-60
2022/12/01 04:09:29;;;;;;;47.63;18.33;;;1.70;99.90;;;;;;5155844;28;20034;-61
2022/12/01 04:14:54;;;;;;;39.42;16.83;;;1.70;99.90;;;;;;5192858;28;20068;-59
2022/12/01 04:17:33;;;;;;;33.42;15.80;;;1.70;99.90;;;;;;5174109;28;20041;-60
2022/12/01 04:20:12;;;;;;;44.88;17.88;;;1.70;99.90;;;;;;5188118;28;20030;-60
2022/12/01 04:22:52;;;;;;;44.42;17.85;;;1.80;99.90;;;;;;5169787;28;20045;-60
2022/12/01 04:25:31;;;;;;;46.33;18.60;;;1.80;99.90;;;;;;5171347;28;20226;-61
2022/12/01 04:28:05;;;;;;;40.03;17.88;;;1.80;99.90;;;;;;5173342;28;20046;-60
2022/12/01 04:30:40;;;;;;;44.28;18.55;;;1.90;99.90;;;;;;5139034;28;20319;-58
2022/12/01 04:33:11;;;;;;;43.53;17.98;;;1.90;99.90;;;;;;5158140;28;20046;-59
2022/12/01 04:35:45;;;;;;;43.10;17.17;;;1.90;99.90;;;;;;5187619;28;20038;-59
2022/12/01 04:38:22;;;;;;;48.08;17.55;;;1.90;99.90;;;;;;5173108;28;20126;-62
2022/12/01 04:41:11;;;;;;;47.85;19.48;;;1.90;99.90;;;;;;5155255;28;20319;-60
2022/12/01 04:43:44;;;;;;;43.80;17.70;;;1.90;99.90;;;;;;5155421;28;20053;-59
2022/12/01 04:46:26;;;;;;;45.00;18.30;;;1.90;99.90;;;;;;5172377;28;20234;-59
2022/12/01 04:48:58;;;;;;;43.53;17.25;;;2.00;99.90;;;;;;5173274;28;20037;-60
2022/12/01 04:51:35;;;;;;;46.22;17.77;;;2.00;99.90;;;;;;5170832;28;20040;-60
2022/12/01 04:54:16;;;;;;;44.83;17.27;;;2.00;99.90;;;;;;5157526;28;20046;-60
2022/12/01 04:56:53;;;;;;;47.13;18.45;;;2.00;99.90;;;;;;5164049;28;20319;-60
2022/12/01 04:59:29;;;;;;;40.95;17.88;;;2.10;99.90;;;;;;5191670;28;20117;-59
2022/12/01 05:02:06;;;;;;;37.60;15.60;;;2.20;99.90;;;;;;5158992;28;20034;-60
2022/12/01 05:04:40;;;;;;;39.92;18.02;;;2.30;99.90;;;;;;5169114;28;20056;-59
2022/12/01 05:07:12;;;;;;;41.97;18.35;;;2.30;99.90;;;;;;5139130;28;20353;-59
2022/12/01 05:09:49;;;;;;;48.10;18.63;;;2.20;99.90;;;;;;5142569;28;20030;-59
2022/12/01 05:12:25;;;;;;;45.42;18.67;;;2.20;99.90;;;;;;5143295;28;20038;-59
2022/12/01 05:14:57;;;;;;;44.33;19.00;;;2.10;99.90;;;;;;5157622;28;20041;-59
2022/12/01 05:17:36;;;;;;;43.30;18.02;;;2.10;99.90;;;;;;5168534;28;20058;-59
2022/12/01 05:23:10;;;;;;;43.03;18.33;;;2.00;99.90;;;;;;5171897;28;20038;-59
2022/12/01 05:25:52;;;;;;;40.60;18.55;;;2.00;99.90;;;;;;5171959;28;20038;-60
2022/12/01 05:28:25;;;;;;;42.40;17.67;;;2.10;99.90;;;;;;5188420;28;20534;-59
2022/12/01 05:30:57;;;;;;;45.60;18.40;;;2.10;99.90;;;;;;5164237;28;20050;-59
2022/12/01 05:33:33;;;;;;;45.53;18.77;;;2.10;99.90;;;;;;5174704;28;20046;-59
2022/12/01 05:36:05;;;;;;;43.55;17.80;;;2.20;99.90;;;;;;5175399;28;20036;-60
2022/12/01 05:38:55;;;;;;;44.50;18.15;;;2.20;99.90;;;;;;5175454;28;20044;-59
2022/12/01 05:41:29;;;;;;;39.03;16.83;;;2.20;99.90;;;;;;5169797;28;20052;-59
2022/12/01 05:44:11;;;;;;;43.05;16.70;;;2.20;99.90;;;;;;5153982;28;20239;-61
2022/12/01 05:46:43;;;;;;;43.67;18.27;;;2.30;99.90;;;;;;5158694;28;20360;-59
2022/12/01 05:49:23;;;;;;;45.72;18.17;;;2.30;99.90;;;;;;5185032;28;20338;-59
2022/12/01 05:52:02;;;;;;;41.55;17.67;;;2.30;99.90;;;;;;5171299;28;20154;-59
2022/12/01 05:54:40;;;;;;;40.40;18.05;;;2.40;99.90;;;;;;5148535;28;20042;-59
2022/12/01 05:57:12;;;;;;;43.78;17.30;;;2.40;99.90;;;;;;5190180;28;20049;-59
2022/12/01 05:59:47;;;;;;;45.05;18.35;;;2.40;99.90;;;;;;5175347;28;20050;-60
2022/12/01 06:02:25;;;;;;;48.03;19.33;;;2.40;99.90;;;;;;5179886;28;20050;-60
2022/12/01 06:05:04;;;;;;;48.53;18.52;;;2.40;99.90;;;;;;5161441;28;20059;-60
2022/12/01 06:07:47;;;;;;;36.80;16.60;;;2.40;99.90;;;;;;5145574;28;20049;-60
2022/12/01 06:10:41;;;;;;;44.53;19.13;;;2.30;99.90;;;;;;5187237;28;20053;-61
2022/12/01 06:13:18;;;;;;;45.90;18.83;;;2.30;99.90;;;;;;5174069;28;20040;-62
2022/12/01 06:16:04;;;;;;;42.30;19.05;;;2.30;99.90;;;;;;5186336;28;20048;-60
2022/12/01 06:18:43;;;;;;;47.03;19.02;;;2.20;99.90;;;;;;5156630;28;20049;-59
2022/12/01 06:21:20;;;;;;;39.47;18.05;;;2.20;99.90;;;;;;5173045;28;20048;-59
2022/12/01 06:23:51;;;;;;;44.63;16.95;;;2.10;99.90;;;;;;5140939;28;20042;-60
2022/12/01 06:26:28;;;;;;;48.90;18.23;;;2.10;99.90;;;;;;5174290;28;20208;-60
2022/12/01 06:29:05;;;;;;;49.35;18.65;;;2.10;99.90;;;;;;5155655;28;20052;-59
2022/12/01 06:31:41;;;;;;;44.33;17.95;;;2.10;99.90;;;;;;5173449;28;20052;-59
2022/12/01 06:34:15;;;;;;;46.70;17.08;;;2.20;99.90;;;;;;5158157;28;20056;-59
2022/12/01 06:36:56;;;;;;;44.90;18.40;;;2.20;99.90;;;;;;5175118;28;20034;-59
2022/12/01 06:39:27;;;;;;;44.92;17.85;;;2.20;99.90;;;;;;5171688;28;20324;-58
2022/12/01 06:42:04;;;;;;;45.55;19.02;;;2.20;99.90;;;;;;5186246;28;20030;-60
2022/12/01 06:44:40;;;;;;;49.42;19.25;;;2.30;99.90;;;;;;5152780;28;20049;-62
2022/12/01 06:47:19;;;;;;;43.75;18.35;;;2.30;99.90;;;;;;5152846;28;20046;-60
2022/12/01 06:49:52;;;;;;;51.17;18.52;;;2.20;99.90;;;;;;5179009;28;20048;-60
2022/12/01 06:52:26;;;;;;;44.80;17.83;;;2.30;99.90;;;;;;5157187;28;20038;-59
2022/12/01 06:55:07;;;;;;;40.30;16.95;;;2.30;99.90;;;;;;5172376;28;20114;-59
2022/12/01 06:57:44;;;;;;;46.28;18.83;;;2.20;99.90;;;;;;5173078;28;20265;-60
2022/12/01 07:00:21;;;;;;;47.90;18.55;;;2.20;99.90;;;;;;5172265;28;20061;-59
2022/12/01 07:02:55;;;;;;;49.38;18.92;;;2.30;99.90;;;;;;5149108;28;20038;-60
2022/12/01 07:05:29;;;;;;;42.67;18.38;;;2.40;99.90;;;;;;5156210;28;20046;-62
2022/12/01 07:08:08;;;;;;;45.83;19.05;;;2.40;99.90;;;;;;5160394;28;20117;-59
2022/12/01 07:10:40;;;;;;;46.25;19.85;;;2.40;99.90;;;;;;5179389;28;20053;-60
2022/12/01 07:13:19;;;;;;;;;;;2.50;99.90;;;;;;5170940;28;20052;-61
2022/12/01 07:15:57;;;;;;;38.88;18.63;;;2.40;99.90;;;;;;5155249;28;19910;-60
2022/12/01 07:18:29;;;;;;;42.92;16.88;;;2.50;99.90;;;;;;5168649;28;20046;-59
2022/12/01 07:21:12;;;;;;;41.72;18.00;;;2.50;99.90;;;;;;5154457;28;20046;-59
2022/12/01 07:24:03;;;;;;;39.53;17.98;;;2.60;99.90;;;;;;5182549;28;20033;-59
2022/12/01 07:26:43;;;;;;;44.65;16.77;;;2.50;99.90;;;;;;5151626;28;20048;-60
2022/12/01 07:29:23;;;;;;;43.50;15.63;;;2.60;99.90;;;;;;5164754;28;20038;-59
2022/12/01 07:32:06;;;;;;;39.17;17.48;;;2.70;99.90;;;;;;5168294;28;20357;-60
2022/12/01 07:34:40;;;;;;;38.53;17.92;;;2.80;99.90;;;;;;5163955;28;20439;-60
2022/12/01 07:37:14;;;;;;;;;;;2.90;99.90;;;;;;5203351;28;20042;-61
2022/12/01 07:39:48;;;;;;;41.67;17.23;;;3.00;99.90;;;;;;5164724;28;19914;-60
2022/12/01 07:42:19;;;;;;;41.03;17.15;;;3.00;99.90;;;;;;5136877;28;20046;-61
2022/12/01 07:45:02;;;;;;;43.08;17.95;;;3.00;99.90;;;;;;5170637;28;20052;-64
2022/12/01 07:47:33;;;;;;;41.00;18.00;;;3.00;99.90;;;;;;5155237;28;20045;-60
2022/12/01 07:50:14;;;;;;;44.92;18.13;;;2.90;99.90;;;;;;5171500;28;20266;-60
2022/12/01 07:52:54;;;;;;;44.30;18.75;;;2.80;99.90;;;;;;5187862;28;20034;-59
2022/12/01 07:55:27;;;;;;;38.03;15.90;;;2.70;99.90;;;;;;5163709;28;20048;-60
2022/12/01 07:58:06;;;;;;;44.58;16.60;;;2.90;99.90;;;;;;5149756;28;20061;-60
2022/12/01 08:00:41;;;;;;;36.13;16.13;;;3.10;99.90;;;;;;5183518;28;20039;-60
2022/12/01 08:03:13;;;;;;;35.67;17.17;;;3.40;99.90;;;;;;5154645;28;20118;-60
2022/12/01 08:06:06;;;;;;;37.63;17.65;;;3.50;99.90;;;;;;5156255;28;20062;-61
2022/12/01 08:08:44;;;;;;;44.20;16.45;;;3.80;99.90;;;;;;5130271;28;20352;-60
2022/12/01 08:11:20;;;;;;;34.95;16.25;;;4.30;99.90;;;;;;5164443;28;20544;-60
2022/12/01 08:14:00;;;;;;;41.05;17.05;;;4.60;99.90;;;;;;5140239;28;20045;-60
2022/12/01 08:16:34;;;;;;;41.55;16.98;;;4.90;99.90;;;;;;5189352;28;20258;-61
2022/12/01 08:19:22;;;;;;;38.60;17.10;;;5.30;99.90;;;;;;5183067;28;20050;-60
2022/12/01 08:21:54;;;;;;;37.40;16.20;;;5.70;99.90;;;;;;5170011;28;20287;-60
2022/12/01 08:24:31;;;;;;;;;;;6.00;99.90;;;;;;5142028;28;20041;-60
2022/12/01 08:27:09;;;;;;;41.53;17.80;;;5.80;99.90;;;;;;5187677;28;20187;-61
2022/12/01 08:29:46;;;;;;;38.90;17.95;;;5.90;99.90;;;;;;5178937;28;20044;-60
2022/12/01 08:32:18;;;;;;;32.35;17.40;;;6.10;99.90;;;;;;5158998;28;20038;-60
2022/12/01 08:34:54;;;;;;;;;;;6.30;99.90;;;;;;5168556;28;20329;-60
2022/12/01 08:37:33;;;;;;;35.10;16.58;;;6.20;99.90;;;;;;5171337;28;20190;-61
2022/12/01 08:40:09;;;;;;;34.35;16.25;;;6.10;99.90;;;;;;5160066;28;20034;-61
2022/12/01 08:42:45;;;;;;;40.05;18.45;;;5.90;99.90;;;;;;5173925;28;20353;-59
2022/12/01 08:45:17;;;;;;;39.35;19.63;;;5.90;99.90;;;;;;5189407;28;20033;-62
2022/12/01 08:47:57;;;;;;;39.70;18.63;;;5.50;99.90;;;;;;5185839;28;20073;-60
2022/12/01 08:50:31;;;;;;;43.70;18.95;;;5.20;99.90;;;;;;5184542;28;20030;-60
2022/12/01 08:53:06;;;;;;;44.25;18.98;;;4.90;99.90;;;;;;5187720;28;20046;-61
2022/12/01 08:55:42;;;;;;;45.45;19.65;;;4.80;99.90;;;;;;5189388;28;20052;-60
2022/12/01 08:58:19;;;;;;;45.10;18.00;;;4.50;99.90;;;;;;5153502;28;20042;-61
2022/12/01 09:00:52;;;;;;;41.30;19.13;;;4.30;99.90;;;;;;5171167;28;21231;-60
2022/12/01 09:03:23;;;;;;;38.42;18.90;;;4.20;99.90;;;;;;5174399;28;20056;-62
2022/12/01 09:06:07;;;;;;;40.30;17.25;;;4.00;99.90;;;;;;5178667;28;20102;-61
2022/12/01 09:08:41;;;;;;;37.33;17.80;;;3.90;99.90;;;;;;5174642;28;20044;-61
2022/12/01 09:11:16;;;;;;;40.10;17.23;;;4.10;99.90;;;;;;5142898;28;20052;-60
2022/12/01 09:13:53;;;;;;;37.72;17.48;;;4.30;99.90;;;;;;5160093;28;20036;-61
2022/12/01 09:16:38;;;;;;;34.65;16.75;;;4.20;99.90;;;;;;5173385;28;20053;-59
2022/12/01 09:19:20;;;;;;;40.60;18.42;;;4.20;99.90;;;;;;5153657;28;20043;-60
2022/12/01 09:22:00;;;;;;;40.10;17.63;;;4.20;99.90;;;;;;5179990;28;20141;-59
2022/12/01 09:24:32;;;;;;;36.70;18.88;;;4.30;99.90;;;;;;5180426;28;20064;-61
2022/12/01 09:27:08;;;;;;;35.90;16.67;;;4.70;99.90;;;;;;5189273;28;20042;-61
2022/12/01 09:29:48;;;;;;;39.47;17.55;;;5.10;99.90;;;;;;5156062;28;20042;-60
2022/12/01 09:32:25;;;;;;;37.28;17.65;;;5.40;99.90;;;;;;5180676;28;20058;-61
2022/12/01 09:34:58;;;;;;;45.67;19.80;;;5.80;99.90;;;;;;5181560;28;20045;-61
2022/12/01 09:37:37;;;;;;;42.78;18.48;;;6.10;99.90;;;;;;5195560;28;20048;-60
2022/12/01 09:40:15;;;;;;;37.75;16.40;;;6.50;99.90;;;;;;5171863;28;20049;-59
2022/12/01 09:43:22;;;;;;;37.53;17.38;;;6.30;99.90;;;;;;5180843;28;20046;-60
2022/12/01 09:46:08;;;;;;;43.15;17.50;;;5.90;99.90;;;;;;5138120;28;20042;-60
2022/12/01 09:48:48;;;;;;;35.92;16.95;;;5.60;99.90;;;;;;5152699;28;20042;-59
2022/12/01 09:51:28;;;;;;;36.75;17.48;;;5.70;99.90;;;;;;5170250;28;20053;-61
2022/12/01 09:54:03;;;;;;;39.70;16.67;;;5.50;99.90;;;;;;5184830;28;20048;-61
2022/12/01 09:56:51;;;;;;;44.63;18.25;;;5.60;99.90;;;;;;5151964;28;20047;-59
2022/12/01 09:59:32;;;;;;;34.75;16.67;;;5.80;99.90;;;;;;5152814;28;20041;-62
2022/12/01 10:02:27;;;;;;;39.55;17.50;;;6.00;99.90;;;;;;5160888;28;20050;-60
2022/12/01 10:05:04;;;;;;;50.15;18.27;;;6.00;99.90;;;;;;5182511;28;20098;-60
2022/12/01 10:07:59;;;;;;;37.15;18.60;;;6.10;99.90;;;;;;5140273;28;20040;-60
2022/12/01 10:10:44;;;;;;;207.02;121.38;;;6.10;99.90;;;;;;5150148;28;20083;-60
2022/12/01 10:13:28;;;;;;;1199.63;522.50;;;5.70;99.90;;;;;;5171678;28;20038;-60
2022/12/01 10:16:11;;;;;;;381.95;183.23;;;5.70;99.90;;;;;;5164529;28;20046;-60
2022/12/01 10:19:04;;;;;;;328.77;253.55;;;5.70;99.90;;;;;;5163778;28;20054;-60
2022/12/01 10:21:54;;;;;;;49.67;28.05;;;5.90;99.90;;;;;;5170378;28;20635;-60
2022/12/01 10:25:00;;;;;;;96.90;64.05;;;6.00;99.90;;;;;;5163681;28;20030;-61
2022/12/01 10:27:50;;;;;;;58.03;33.70;;;6.20;99.90;;;;;;5176357;28;20034;-62
2022/12/01 10:30:24;;;;;;;155.80;77.70;;;6.20;99.90;;;;;;5143942;28;20031;-60
2022/12/01 10:33:25;;;;;;;403.48;244.80;;;6.00;99.90;;;;;;5167107;28;20073;-59
2022/12/01 10:36:01;;;;;;;763.75;415.35;;;6.00;99.90;;;;;;5180078;28;20041;-60
2022/12/01 10:38:39;;;;;;;878.15;486.50;;;6.10;99.90;;;;;;5157057;28;20034;-60
2022/12/01 10:41:17;;;;;;;416.50;219.52;;;6.10;99.90;;;;;;5172316;28;20042;-60
2022/12/01 10:43:59;;;;;;;854.13;462.13;;;6.10;99.90;;;;;;5168901;28;20042;-61
2022/12/01 10:46:53;;;;;;;1464.72;784.22;;;6.10;99.90;;;;;;5142303;28;20451;-60
2022/12/01 10:49:39;;;;;;;450.85;263.40;;;6.20;99.90;;;;;;5188202;28;20042;-60
2022/12/01 10:52:35;;;;;;;62.17;31.98;;;6.20;99.90;;;;;;5154626;28;20042;-59
2022/12/01 10:55:22;;;;;;;338.33;192.55;;;6.20;99.90;;;;;;5172190;28;20018;-61
2022/12/01 10:58:03;;;;;;;327.65;201.20;;;6.50;99.90;;;;;;5185139;28;20312;-60
2022/12/01 11:00:53;;;;;;;298.30;169.18;;;6.60;99.90;;;;;;5177979;28;20060;-60
2022/12/01 11:03:36;;;;;;;120.15;62.10;;;6.80;99.90;;;;;;5186753;28;20058;-60
2022/12/01 11:06:09;;;;;;;169.27;93.90;;;6.90;99.90;;;;;;5157325;28;20051;-59
2022/12/01 11:08:56;;;;;;;86.60;47.97;;;7.10;99.90;;;;;;5186389;28;20291;-61
2022/12/01 11:11:32;;;;;;;75.47;42.10;;;6.90;99.90;;;;;;5155156;28;20049;-61
2022/12/01 11:14:23;;;;;;;44.05;23.80;;;7.20;99.90;;;;;;5172238;28;20046;-61
2022/12/01 11:16:56;;;;;;;81.90;40.40;;;7.40;99.90;;;;;;5172536;28;20046;-60
2022/12/01 11:19:34;;;;;;;63.70;35.95;;;7.50;99.90;;;;;;5171842;28;20038;-60
2022/12/01 11:22:59;;;;;;;57.55;31.33;;;7.90;99.90;;;;;;5170452;28;20042;-61
2022/12/01 11:25:31;;;;;;;117.25;62.20;;;8.10;99.90;;;;;;5110356;29;20050;-60
2022/12/01 11:28:06;;;;;;;317.40;179.88;;;8.30;99.90;;;;;;5138311;28;20055;-60
2022/12/01 11:30:43;;;;;;;55.45;27.80;;;8.50;99.90;;;;;;5116123;28;20055;-60
2022/12/01 11:33:17;;;;;;;144.32;76.57;;;9.00;99.90;;;;;;5129957;28;20050;-60
2022/12/01 11:35:52;;;;;;;48.33;27.52;;;9.60;99.90;;;;;;5174993;28;20042;-60
2022/12/01 11:38:32;;;;;;;112.95;60.40;;;10.20;99.90;;;;;;5152990;28;20044;-60
2022/12/01 11:41:32;;;;;;;41.60;22.65;;;10.50;99.90;;;;;;5148977;28;20054;-60
2022/12/01 11:44:16;;;;;;;44.28;23.77;;;10.00;99.90;;;;;;5126225;28;20069;-60
2022/12/01 11:46:48;;;;;;;38.33;18.95;;;10.10;99.90;;;;;;5153866;28;20072;-59
2022/12/01 11:49:31;;;;;;;38.25;19.35;;;10.40;99.90;;;;;;5137344;28;20050;-59
2022/12/01 11:52:33;;;;;;;41.17;19.88;;;10.40;99.90;;;;;;5121856;28;20280;-61
2022/12/01 11:55:10;;;;;;;40.38;19.80;;;10.10;99.90;;;;;;5153451;28;20040;-62
2022/12/01 11:57:49;;;;;;;37.30;19.35;;;9.60;99.90;;;;;;5158697;28;20395;-62
2022/12/01 12:00:25;;;;;;;41.67;19.65;;;9.00;99.90;;;;;;5154176;28;20370;-60
2022/12/01 12:03:21;;;;;;;37.13;18.92;;;8.50;99.90;;;;;;5162757;28;20049;-60
2022/12/01 12:06:54;;;;;;;42.97;20.10;;;8.40;99.90;;;;;;5145748;28;20389;-60
2022/12/01 12:09:53;;;;;;;91.72;61.80;;;8.60;99.90;;;;;;5173435;28;20026;-61
2022/12/01 12:13:03;;;;;;;690.95;353.02;;;8.90;99.90;;;;;;5183553;28;20045;-60
2022/12/01 12:16:01;;;;;;;203.43;145.27;;;9.10;99.90;;;;;;5147944;28;20042;-61
2022/12/01 12:18:36;;;;;;;126.43;68.55;;;8.90;99.90;;;;;;5182141;28;20042;-61
2022/12/01 12:21:37;;;;;;;;;;;8.90;99.90;;;;;;5160103;28;20042;-59
2022/12/01 12:24:14;;;;;;;58.92;28.65;;;8.60;99.90;;;;;;5141368;28;19918;-60
2022/12/01 12:27:25;;;;;;;61.55;38.95;;;8.30;99.90;;;;;;5174666;28;20042;-60
2022/12/01 12:30:21;;;;;;;44.65;22.40;;;8.20;99.90;;;;;;5185105;28;20065;-60
2022/12/01 12:33:21;;;;;;;66.28;38.75;;;7.90;99.90;;;;;;5140765;28;20360;-59
2022/12/01 12:36:41;;;;;;;41.90;21.38;;;7.80;99.90;;;;;;5172950;28;20088;-61
2022/12/01 12:40:04;;;;;;;109.55;66.05;;;7.90;99.90;;;;;;5170430;28;20050;-61
2022/12/01 12:43:04;;;;;;;151.02;83.22;;;8.00;99.90;;;;;;5188517;28;20358;-59
2022/12/01 12:46:02;;;;;;;139.70;67.43;;;7.70;99.90;;;;;;5173029;28;20038;-60
2022/12/01 12:48:51;;;;;;;80.82;42.78;;;7.70;99.90;;;;;;5172550;28;20066;-62
2022/12/01 12:52:04;;;;;;;85.95;44.75;;;7.70;99.90;;;;;;5150893;28;20027;-62
2022/12/01 12:55:11;;;;;;;40.85;19.67;;;7.80;99.90;;;;;;5161408;28;20027;-60
2022/12/01 12:57:59;;;;;;;62.15;33.53;;;7.70;99.90;;;;;;5173763;28;20073;-60
2022/12/01 13:00:47;;;;;;;51.50;28.45;;;7.80;99.90;;;;;;5188180;28;20048;-60
2022/12/01 13:03:47;;;;;;;58.75;29.33;;;7.90;99.90;;;;;;5186629;28;20060;-61
2022/12/01 13:06:48;;;;;;;88.32;55.88;;;7.80;99.90;;;;;;5127209;28;20051;-62
2022/12/01 13:09:38;;;;;;;58.88;39.35;;;7.60;99.90;;;;;;5172373;28;20038;-61
2022/12/01 13:12:30;;;;;;;78.72;51.72;;;7.40;99.90;;;;;;5157598;28;20038;-60
2022/12/01 13:15:22;;;;;;;48.13;26.75;;;7.50;99.90;;;;;;5172833;28;20329;-62
2022/12/01 13:18:24;;;;;;;74.95;41.78;;;7.50;99.90;;;;;;5170154;28;20043;-60
2022/12/01 13:21:11;;;;;;;105.82;72.05;;;7.40;99.90;;;;;;5150098;28;20244;-61
2022/12/01 13:23:50;;;;;;;81.43;44.20;;;7.10;99.90;;;;;;5154294;28;20044;-59
2022/12/01 13:26:27;;;;;;;94.75;55.08;;;6.80;99.90;;;;;;5169468;28;20050;-60
2022/12/01 13:29:01;;;;;;;73.78;42.45;;;6.50;99.90;;;;;;5154531;28;20051;-60
2022/12/01 13:31:45;;;;;;;;;;;6.50;99.90;;;;;;5165452;28;20040;-61
2022/12/01 13:34:43;;;;;;;88.47;51.33;;;6.40;99.90;;;;;;5183191;28;20107;-60
2022/12/01 13:37:38;;;;;;;82.15;45.85;;;6.20;99.90;;;;;;5140901;28;20081;-62
2022/12/01 13:40:34;;;;;;;105.55;55.75;;;6.10;99.90;;;;;;5156870;28;20327;-60
2022/12/01 13:43:19;;;;;;;83.80;44.92;;;5.90;99.90;;;;;;5137620;28;20047;-59
2022/12/01 13:45:51;;;;;;;103.65;49.88;;;5.90;99.90;;;;;;5150499;28;20030;-59
2022/12/01 13:48:45;;;;;;;74.88;40.00;;;5.80;99.90;;;;;;5166635;28;20365;-60
2022/12/01 13:51:17;;;;;;;104.38;53.03;;;5.60;99.90;;;;;;5149739;28;20043;-61
2022/12/01 13:54:28;;;;;;;134.05;66.25;;;5.60;99.90;;;;;;5152771;28;20046;-60
2022/12/01 13:57:26;;;;;;;133.57;75.72;;;5.50;99.90;;;;;;5085609;29;20046;-61
2022/12/01 13:59:58;;;;;;;51.85;26.02;;;5.40;99.90;;;;;;5114866;29;20056;-60
2022/12/01 14:02:39;;;;;;;87.93;50.17;;;5.30;99.90;;;;;;5092907;29;20054;-60
2022/12/01 14:05:52;;;;;;;62.70;39.72;;;5.30;99.90;;;;;;5074564;29;20362;-61